createdAt,value
2022-08-02T00:02:40.987Z,24.41
2022-08-02T00:05:27.014Z,24.37
2022-08-02T00:08:13.072Z,24.35
2022-08-02T00:10:59.023Z,24.34
2022-08-02T00:13:44.710Z,24.28
2022-08-02T00:16:38.270Z,24.30
2022-08-02T00:19:25.512Z,24.28
2022-08-02T00:22:12.260Z,24.28
2022-08-02T00:24:58.185Z,24.26
2022-08-02T00:27:44.195Z,24.24
2022-08-02T00:30:30.455Z,24.23
2022-08-02T00:33:16.444Z,24.26
2022-08-02T00:36:22.286Z,24.24
2022-08-02T00:39:08.134Z,24.24
2022-08-02T00:42:15.555Z,24.19
2022-08-02T00:45:03.137Z,24.21
2022-08-02T00:47:48.852Z,24.20
2022-08-02T00:50:35.311Z,24.17
2022-08-02T00:53:21.470Z,24.16
2022-08-02T00:56:07.382Z,24.13
2022-08-02T00:58:53.554Z,24.15
2022-08-02T01:01:56.300Z,24.12
2022-08-02T01:04:43.545Z,24.07
2022-08-02T01:07:29.693Z,24.06
2022-08-02T01:10:15.583Z,24.05
2022-08-02T01:13:04.894Z,24.03
2022-08-02T01:16:10.885Z,23.92
2022-08-02T01:19:00.212Z,23.95
2022-08-02T01:22:00.198Z,23.82
2022-08-02T01:25:01.638Z,23.86
2022-08-02T01:28:18.005Z,23.78
2022-08-02T01:31:27.019Z,23.75
2022-08-02T01:34:18.663Z,23.78
2022-08-02T01:37:14.945Z,23.71
2022-08-02T01:40:05.318Z,23.74
2022-08-02T01:42:54.494Z,23.74
2022-08-02T01:45:42.349Z,23.71
2022-08-02T01:48:29.217Z,23.67
2022-08-02T01:51:18.182Z,23.65
2022-08-02T01:54:04.258Z,23.66
2022-08-02T01:56:51.534Z,23.67
2022-08-02T01:59:38.180Z,23.63
2022-08-02T02:02:26.282Z,23.62
2022-08-02T02:05:17.083Z,23.59
2022-08-02T02:08:04.947Z,23.57
2022-08-02T02:10:51.684Z,23.57
2022-08-02T02:13:40.879Z,23.52
2022-08-02T02:16:27.485Z,23.52
2022-08-02T02:19:21.020Z,23.56
2022-08-02T02:22:08.339Z,23.53
2022-08-02T02:24:56.898Z,23.58
2022-08-02T02:28:00.471Z,23.58
2022-08-02T02:30:49.239Z,23.59
2022-08-02T02:33:47.478Z,23.56
2022-08-02T02:36:34.148Z,23.61
2022-08-02T02:39:22.519Z,23.58
2022-08-02T02:42:09.794Z,23.57
2022-08-02T02:44:57.395Z,23.54
2022-08-02T02:47:43.376Z,23.52
2022-08-02T02:50:30.559Z,23.52
2022-08-02T02:53:18.913Z,23.50
2022-08-02T02:56:05.615Z,23.47
2022-08-02T02:58:54.695Z,23.46
2022-08-02T03:01:56.042Z,23.43
2022-08-02T03:04:55.840Z,23.44
2022-08-02T03:07:43.607Z,23.39
2022-08-02T03:10:29.852Z,23.35
2022-08-02T03:13:16.351Z,23.35
2022-08-02T03:16:03.387Z,23.35
2022-08-02T03:18:49.117Z,23.33
2022-08-02T03:21:38.830Z,23.29
2022-08-02T03:24:28.203Z,23.30
2022-08-02T03:27:14.415Z,23.27
2022-08-02T03:30:00.408Z,23.26
2022-08-02T03:32:48.045Z,23.21
2022-08-02T03:35:34.509Z,23.18
2022-08-02T03:38:21.939Z,23.15
2022-08-02T03:41:09.478Z,23.17
2022-08-02T03:43:56.108Z,23.15
2022-08-02T03:46:42.440Z,23.15
2022-08-02T03:49:32.408Z,23.13
2022-08-02T03:52:18.718Z,23.12
2022-08-02T03:55:05.257Z,23.11
2022-08-02T03:57:51.290Z,23.11
2022-08-02T04:00:38.027Z,23.13
2022-08-02T04:03:24.080Z,23.12
2022-08-02T04:06:10.169Z,23.15
2022-08-02T04:08:55.995Z,23.17
2022-08-02T04:11:41.652Z,23.21
2022-08-02T04:14:27.868Z,23.19
2022-08-02T04:17:15.852Z,23.21
2022-08-02T04:20:04.606Z,23.23
2022-08-02T04:23:05.381Z,23.21
2022-08-02T04:25:51.964Z,23.19
2022-08-02T04:28:40.090Z,23.20
2022-08-02T04:31:26.673Z,23.22
2022-08-02T04:34:15.315Z,23.21
2022-08-02T04:37:01.386Z,23.23
2022-08-02T04:39:47.571Z,23.25
2022-08-02T04:42:33.648Z,23.26
2022-08-02T04:45:20.124Z,23.30
2022-08-02T04:48:06.694Z,23.33
2022-08-02T04:50:53.107Z,23.36
2022-08-02T04:53:38.951Z,23.36
2022-08-02T04:56:24.893Z,23.46
2022-08-02T04:59:12.483Z,23.48
2022-08-02T05:01:58.340Z,23.51
2022-08-02T05:04:44.246Z,23.56
2022-08-02T05:07:30.392Z,23.55
2022-08-02T05:10:22.388Z,23.62
2022-08-02T05:13:08.127Z,23.63
2022-08-02T05:15:54.050Z,23.64
2022-08-02T05:18:40.085Z,23.69
2022-08-02T05:21:26.299Z,23.69
2022-08-02T05:24:12.352Z,23.71
2022-08-02T05:26:57.985Z,23.71
2022-08-02T05:29:51.201Z,23.72
2022-08-02T05:32:48.433Z,23.76
2022-08-02T05:35:35.196Z,23.73
2022-08-02T05:38:25.967Z,23.76
2022-08-02T05:41:12.206Z,23.77
2022-08-02T05:43:58.024Z,23.79
2022-08-02T05:46:44.136Z,23.81
2022-08-02T05:49:30.321Z,23.84
2022-08-02T05:52:18.606Z,23.80
2022-08-02T05:55:13.424Z,23.83
2022-08-02T05:58:09.498Z,23.94
2022-08-02T06:00:56.678Z,23.94
2022-08-02T06:03:52.388Z,23.93
2022-08-02T06:06:38.518Z,23.99
2022-08-02T06:09:27.303Z,24.04
2022-08-02T06:12:14.941Z,24.08
2022-08-02T06:15:03.426Z,24.12
2022-08-02T06:17:49.106Z,24.12
2022-08-02T06:20:36.959Z,24.16
2022-08-02T06:23:23.421Z,24.21
2022-08-02T06:26:12.074Z,24.21
2022-08-02T06:28:58.515Z,24.30
2022-08-02T06:31:45.479Z,24.30
2022-08-02T06:34:31.692Z,24.35
2022-08-02T06:37:56.920Z,24.37
2022-08-02T06:41:13.845Z,24.40
2022-08-02T06:44:26.292Z,24.43
2022-08-02T06:47:23.730Z,24.48
2022-08-02T06:50:10.566Z,24.51
2022-08-02T06:52:56.875Z,24.59
2022-08-02T06:55:44.026Z,24.62
2022-08-02T06:58:30.217Z,24.65
2022-08-02T07:01:16.355Z,24.70
2022-08-02T07:04:02.147Z,24.70
2022-08-02T07:06:47.985Z,24.72
2022-08-02T07:09:34.059Z,24.71
2022-08-02T07:12:20.080Z,24.74
2022-08-02T07:15:08.243Z,24.79
2022-08-02T07:17:54.239Z,24.82
2022-08-02T07:20:40.023Z,24.81
2022-08-02T07:23:25.691Z,24.85
2022-08-02T07:26:11.543Z,24.90
2022-08-02T07:28:58.656Z,24.91
2022-08-02T07:31:44.602Z,24.99
2022-08-02T07:34:30.358Z,25.03
2022-08-02T07:37:31.907Z,25.05
2022-08-02T07:40:29.057Z,25.11
2022-08-02T07:43:15.238Z,25.15
2022-08-02T07:46:01.276Z,25.16
2022-08-02T07:48:57.050Z,25.25
2022-08-02T07:51:43.257Z,25.22
2022-08-02T07:54:31.066Z,25.31
2022-08-02T07:57:16.694Z,25.32
2022-08-02T08:00:06.505Z,25.35
2022-08-02T08:02:58.972Z,25.35
2022-08-02T08:05:44.860Z,25.37
2022-08-02T08:08:30.554Z,25.38
2022-08-02T08:11:16.546Z,25.39
2022-08-02T08:14:02.939Z,25.43
2022-08-02T08:16:49.002Z,25.46
2022-08-02T08:19:50.847Z,25.51
2022-08-02T08:22:41.566Z,25.55
2022-08-02T08:25:27.872Z,25.56
2022-08-02T08:28:14.847Z,25.59
2022-08-02T08:31:00.606Z,25.60
2022-08-02T08:33:46.356Z,25.66
2022-08-02T08:36:32.289Z,25.65
2022-08-02T08:39:18.246Z,25.73
2022-08-02T08:42:07.853Z,25.71
2022-08-02T08:44:56.180Z,25.78
2022-08-02T08:47:45.533Z,25.81
2022-08-02T08:50:34.489Z,25.87
2022-08-02T08:53:22.025Z,25.87
2022-08-02T08:56:42.696Z,25.93
2022-08-02T08:59:39.192Z,25.94
2022-08-02T09:02:28.353Z,25.98
2022-08-02T09:05:16.673Z,26.00
2022-08-02T09:08:02.375Z,26.02
2022-08-02T09:10:49.126Z,26.03
2022-08-02T09:13:45.189Z,26.08
2022-08-02T09:16:52.702Z,26.11
2022-08-02T09:19:45.688Z,26.18
2022-08-02T09:22:32.147Z,26.18
2022-08-02T09:25:18.241Z,26.23
2022-08-02T09:28:39.762Z,26.26
2022-08-02T09:31:26.120Z,26.29
2022-08-02T09:34:12.462Z,26.32
2022-08-02T09:37:37.931Z,26.37
2022-08-02T09:40:40.939Z,26.42
2022-08-02T09:43:58.826Z,26.48
2022-08-02T09:46:56.714Z,26.54
2022-08-02T09:49:52.295Z,26.58
2022-08-02T09:52:47.780Z,26.66
2022-08-02T09:55:33.855Z,26.67
2022-08-02T09:58:20.477Z,26.74
2022-08-02T10:01:07.060Z,26.76
2022-08-02T10:04:02.290Z,26.82
2022-08-02T10:06:52.013Z,26.89
2022-08-02T10:09:43.181Z,26.95
2022-08-02T10:12:38.074Z,27.01
2022-08-02T10:15:27.339Z,27.07
2022-08-02T10:18:37.032Z,27.11
2022-08-02T10:21:56.372Z,27.18
2022-08-02T10:24:47.686Z,27.20
2022-08-02T10:27:55.512Z,27.27
2022-08-02T10:30:53.817Z,27.35
2022-08-02T10:33:40.114Z,27.32
2022-08-02T10:36:27.395Z,27.35
2022-08-02T10:39:20.656Z,27.33
2022-08-02T10:42:12.580Z,27.35
2022-08-02T10:46:00.431Z,27.39
2022-08-02T10:52:20.407Z,27.57
2022-08-02T10:55:14.572Z,27.63
2022-08-02T10:58:17.408Z,27.67
2022-08-02T11:01:06.070Z,27.73
2022-08-02T11:03:58.435Z,27.81
2022-08-02T11:07:18.243Z,27.87
2022-08-02T11:10:35.107Z,27.90
2022-08-02T11:13:20.799Z,27.94
2022-08-02T11:16:11.276Z,27.97
2022-08-02T11:18:57.637Z,28.04
2022-08-02T11:22:07.019Z,28.12
2022-08-02T11:24:52.983Z,28.20
2022-08-02T11:27:38.928Z,28.31
2022-08-02T11:30:26.409Z,28.41
2022-08-02T11:33:13.139Z,28.49
2022-08-02T11:36:04.411Z,28.55
2022-08-02T11:38:50.323Z,28.54
2022-08-02T11:41:47.143Z,28.64
2022-08-02T11:44:42.400Z,28.70
2022-08-02T11:47:28.708Z,28.74
2022-08-02T11:50:14.911Z,28.80
2022-08-02T11:53:00.755Z,28.83
2022-08-02T11:55:46.568Z,28.79
2022-08-02T11:58:32.734Z,28.83
2022-08-02T12:01:18.675Z,28.85
2022-08-02T12:04:07.522Z,28.88
2022-08-02T12:06:56.239Z,28.96
2022-08-02T12:09:42.953Z,29.01
2022-08-02T12:12:29.135Z,29.12
2022-08-02T12:15:15.585Z,29.24
2022-08-02T12:18:20.262Z,29.34
2022-08-02T12:21:26.897Z,29.43
2022-08-02T12:24:13.259Z,29.48
2022-08-02T12:26:59.213Z,29.51
2022-08-02T12:29:57.871Z,29.50
2022-08-02T12:32:46.197Z,29.55
2022-08-02T12:35:32.274Z,29.60
2022-08-02T12:38:18.306Z,29.66
2022-08-02T12:41:31.424Z,29.78
2022-08-02T12:44:19.676Z,29.87
2022-08-02T12:47:09.671Z,29.95
2022-08-02T12:50:16.482Z,29.96
2022-08-02T12:53:14.003Z,29.94
2022-08-02T12:56:03.729Z,29.88
2022-08-02T12:58:51.473Z,29.91
2022-08-02T13:01:37.961Z,29.92
2022-08-02T13:04:24.288Z,30.02
2022-08-02T13:07:11.018Z,30.13
2022-08-02T13:10:00.311Z,30.29
2022-08-02T13:12:49.846Z,30.43
2022-08-02T13:15:49.898Z,30.62
2022-08-02T13:18:36.877Z,30.84
2022-08-02T13:21:39.797Z,30.98
2022-08-02T13:24:38.179Z,31.14
2022-08-02T13:27:28.594Z,31.32
2022-08-02T13:30:14.791Z,31.65
2022-08-02T13:33:01.458Z,32.07
2022-08-02T13:35:48.259Z,32.32
2022-08-02T13:38:34.530Z,32.51
2022-08-02T13:41:20.766Z,32.65
2022-08-02T13:44:10.290Z,32.57
2022-08-02T13:46:56.838Z,32.36
2022-08-02T13:49:50.675Z,32.13
2022-08-02T13:52:37.749Z,32.08
2022-08-02T13:55:24.430Z,32.28
2022-08-02T13:58:10.682Z,32.62
2022-08-02T14:00:56.683Z,32.92
2022-08-02T14:04:06.079Z,33.21
2022-08-02T14:06:49.129Z,33.64
2022-08-02T14:09:38.486Z,33.97
2022-08-02T14:12:26.579Z,34.25
2022-08-02T14:15:12.477Z,34.48
2022-08-02T14:17:58.738Z,34.73
2022-08-02T14:20:45.687Z,34.91
2022-08-02T14:23:50.749Z,35.10
2022-08-02T14:26:38.383Z,35.27
2022-08-02T14:29:24.519Z,35.39
2022-08-02T14:32:11.193Z,35.51
2022-08-02T14:34:57.921Z,35.63
2022-08-02T14:37:44.777Z,35.76
2022-08-02T14:40:32.140Z,35.88
2022-08-02T14:43:37.755Z,36.01
2022-08-02T14:46:24.293Z,36.20
2022-08-02T14:49:11.072Z,36.38
2022-08-02T14:52:01.295Z,36.65
2022-08-02T14:54:48.350Z,37.07
2022-08-02T14:57:34.790Z,37.57
2022-08-02T15:00:21.761Z,38.10
2022-08-02T15:03:09.092Z,38.78
2022-08-02T15:05:55.920Z,39.46
2022-08-02T15:08:42.181Z,40.20
2022-08-02T15:11:29.170Z,40.90
2022-08-02T15:14:25.812Z,41.62
2022-08-02T15:17:13.883Z,42.38
2022-08-02T15:20:05.621Z,43.02
2022-08-02T15:22:58.085Z,43.65
2022-08-02T15:25:44.850Z,43.68
2022-08-02T15:28:31.441Z,42.96
2022-08-02T15:31:33.474Z,41.87
2022-08-02T15:34:19.956Z,41.05
2022-08-02T15:37:06.354Z,40.48
2022-08-02T15:39:52.505Z,39.97
2022-08-02T15:42:38.234Z,39.22
2022-08-02T15:45:25.566Z,38.54
2022-08-02T15:48:12.451Z,37.92
2022-08-02T15:50:58.163Z,37.34
2022-08-02T15:53:43.889Z,36.81
2022-08-02T15:56:31.794Z,36.34
2022-08-02T15:59:19.814Z,35.94
2022-08-02T16:02:07.043Z,35.48
2022-08-02T16:04:54.671Z,35.09
2022-08-02T16:07:41.330Z,34.78
2022-08-02T16:10:27.439Z,34.51
2022-08-02T16:13:36.337Z,34.19
2022-08-02T16:16:26.721Z,33.93
2022-08-02T16:19:45.976Z,33.72
2022-08-02T16:22:20.887Z,33.48
2022-08-02T16:25:08.367Z,33.26
2022-08-02T16:28:06.575Z,33.08
2022-08-02T16:31:10.352Z,32.93
2022-08-02T16:33:57.686Z,32.74
2022-08-02T16:36:43.909Z,32.62
2022-08-02T16:39:29.815Z,32.49
2022-08-02T16:42:16.912Z,32.36
2022-08-02T16:45:12.003Z,32.27
2022-08-02T16:48:03.625Z,32.13
2022-08-02T16:50:51.615Z,32.06
2022-08-02T16:53:40.005Z,31.95
2022-08-02T16:56:43.835Z,31.89
2022-08-02T16:59:41.988Z,31.79
2022-08-02T17:02:30.023Z,31.69
2022-08-02T17:05:15.849Z,31.58
2022-08-02T17:08:15.923Z,31.52
2022-08-02T17:11:04.558Z,31.44
2022-08-02T17:13:51.050Z,31.32
2022-08-02T17:16:37.014Z,31.26
2022-08-02T17:19:23.260Z,31.17
2022-08-02T17:25:17.761Z,30.99
2022-08-02T17:28:04.010Z,30.93
2022-08-02T17:30:51.686Z,30.85
2022-08-02T17:33:37.872Z,30.74
2022-08-02T17:36:23.994Z,30.69
2022-08-02T17:39:10.227Z,30.61
2022-08-02T17:41:56.917Z,30.57
2022-08-02T17:44:49.023Z,30.52
2022-08-02T17:47:42.369Z,30.44
2022-08-02T17:50:28.894Z,30.34
2022-08-02T17:53:15.180Z,30.29
2022-08-02T17:56:01.611Z,30.25
2022-08-02T17:58:52.018Z,30.16
2022-08-02T18:01:52.996Z,30.10
2022-08-02T18:04:40.526Z,30.04
2022-08-02T18:07:26.419Z,29.99
2022-08-02T18:10:32.503Z,29.93
2022-08-02T18:13:18.803Z,29.87
2022-08-02T18:16:05.668Z,29.82
2022-08-02T18:19:16.704Z,29.78
2022-08-02T18:22:14.092Z,29.73
2022-08-02T18:25:00.900Z,29.67
2022-08-02T18:27:55.505Z,29.63
2022-08-02T18:30:42.569Z,29.53
2022-08-02T18:33:57.103Z,29.56
2022-08-02T18:36:47.383Z,29.50
2022-08-02T18:39:34.185Z,29.48
2022-08-02T18:42:24.735Z,29.46
2022-08-02T18:45:19.891Z,29.40
2022-08-02T18:48:08.144Z,29.38
2022-08-02T18:50:54.510Z,29.35
2022-08-02T18:53:42.965Z,29.30
2022-08-02T18:56:32.658Z,29.27
2022-08-02T18:59:20.287Z,29.24
2022-08-02T19:02:06.808Z,29.20
2022-08-02T19:04:52.539Z,29.19
2022-08-02T19:07:50.669Z,29.15
2022-08-02T19:10:39.626Z,29.11
2022-08-02T19:13:40.753Z,29.03
2022-08-02T19:16:37.260Z,29.00
2022-08-02T19:19:28.836Z,28.96
2022-08-02T19:22:19.201Z,28.89
2022-08-02T19:25:06.718Z,28.84
2022-08-02T19:28:01.199Z,28.78
2022-08-02T19:30:48.315Z,28.70
2022-08-02T19:34:04.374Z,28.62
2022-08-02T19:36:44.863Z,28.57
2022-08-02T19:39:30.639Z,28.55
2022-08-02T19:42:17.349Z,28.51
2022-08-02T19:45:05.483Z,28.50
2022-08-02T19:47:54.448Z,28.46
2022-08-02T19:50:44.288Z,28.39
2022-08-02T19:53:48.189Z,28.38
2022-08-02T19:56:37.017Z,28.37
2022-08-02T19:59:26.654Z,28.31
2022-08-02T20:02:18.884Z,28.27
2022-08-02T20:05:16.479Z,28.24
2022-08-02T20:08:10.428Z,28.21
2022-08-02T20:11:18.782Z,28.16
2022-08-02T20:14:05.694Z,28.12
2022-08-02T20:16:52.019Z,28.03
2022-08-02T20:19:41.812Z,27.98
2022-08-02T20:22:32.975Z,27.96
2022-08-02T20:25:19.202Z,27.91
2022-08-02T20:28:05.433Z,27.85
2022-08-02T20:30:51.864Z,27.78
2022-08-02T20:33:55.362Z,27.76
2022-08-02T20:36:42.907Z,27.73
2022-08-02T20:39:42.973Z,27.67
2022-08-02T20:42:29.546Z,27.58
2022-08-02T20:45:17.173Z,27.55
2022-08-02T20:48:05.036Z,27.53
2022-08-02T20:50:54.248Z,27.52
2022-08-02T20:53:54.602Z,27.45
2022-08-02T20:56:47.606Z,27.46
2022-08-02T20:59:38.511Z,27.42
2022-08-02T21:02:25.576Z,27.42
2022-08-02T21:05:17.336Z,27.34
2022-08-02T21:08:20.545Z,27.34
2022-08-02T21:11:09.225Z,27.27
2022-08-02T21:14:07.946Z,27.25
2022-08-02T21:16:55.576Z,27.23
2022-08-02T21:19:44.176Z,27.21
2022-08-02T21:22:30.735Z,27.15
2022-08-02T21:25:18.681Z,27.13
2022-08-02T21:28:10.055Z,27.06
2022-08-02T21:31:03.576Z,26.97
2022-08-02T21:33:58.116Z,27.00
2022-08-02T21:36:56.668Z,26.93
2022-08-02T21:39:42.965Z,26.89
2022-08-02T21:42:41.493Z,26.91
2022-08-02T21:45:27.798Z,26.87
2022-08-02T21:48:14.221Z,26.86
2022-08-02T21:50:59.864Z,26.81
2022-08-02T21:54:18.547Z,26.77
2022-08-02T21:56:55.402Z,26.72
2022-08-02T21:59:41.607Z,26.65
2022-08-02T22:02:31.449Z,26.63
2022-08-02T22:05:17.395Z,26.56
2022-08-02T22:08:03.617Z,26.55
2022-08-02T22:11:03.302Z,26.48
2022-08-02T22:13:54.658Z,26.44
2022-08-02T22:16:40.626Z,26.37
2022-08-02T22:19:26.850Z,26.36
2022-08-02T22:22:14.737Z,26.34
2022-08-02T22:25:00.814Z,26.29
2022-08-02T22:28:12.006Z,26.29
2022-08-02T22:30:58.212Z,26.22
2022-08-02T22:34:04.486Z,26.18
2022-08-02T22:36:57.443Z,26.15
2022-08-02T22:40:09.024Z,26.11
2022-08-02T22:42:49.211Z,26.05
2022-08-02T22:45:37.589Z,26.03
2022-08-02T22:48:24.834Z,26.01
2022-08-02T22:51:10.738Z,25.96
2022-08-02T22:53:58.431Z,25.93
2022-08-02T22:56:44.620Z,25.90
2022-08-02T22:58:49.322Z,31.10
2022-08-02T22:59:39.021Z,25.87
2022-08-02T23:02:26.492Z,25.81
2022-08-02T23:05:12.556Z,25.80
2022-08-02T23:07:58.998Z,25.78
2022-08-02T23:10:47.262Z,25.73
2022-08-02T23:13:36.406Z,25.71
2022-08-02T23:16:40.475Z,25.67
2022-08-02T23:19:46.561Z,25.61
2022-08-02T23:22:32.660Z,25.60
2022-08-02T23:25:18.558Z,25.56
2022-08-02T23:28:04.739Z,25.54
2022-08-02T23:30:50.738Z,25.49
2022-08-02T23:33:36.498Z,25.44
2022-08-02T23:36:43.711Z,25.42
2022-08-02T23:39:34.083Z,25.38
2022-08-02T23:42:23.361Z,25.41
2022-08-02T23:45:09.809Z,25.34
2022-08-02T23:47:55.535Z,25.34
2022-08-02T23:50:41.728Z,25.32
2022-08-02T23:53:27.487Z,25.27
2022-08-02T23:56:13.462Z,25.27
2022-08-02T23:58:59.752Z,25.22
